logo
Search for airport 
image banner adimage banner adimage banner ad
image banner ad

LSYJ - Jungfraujoch

Located in , Switzerland

ICAO - , IATA -

Data provided by Airmate  

General information

Coordinates: N46°32'52" E7°59'25"
Elevation is 11345 feet MSL.
 
View others Airports in Berne

Operational data

Special qualification required
Current time UTC:
Current local time:
Weather at : LSMM - Meiringen ( 23 km )
METAR: LSMM 271450Z AUTO 23003KT 9999NDV NCD 20/11 Q1020 RMK
View NOTAMs / SUP AIP / TFR affecting this airport [VIEW]
Communications frequencies: [VIEW]

Runways:

Airport contact information

Address: Switzerland

Satellite view of LSYJ